createdAt,value
2022-11-27T00:00:35.298Z,2.59
2022-11-27T00:05:59.479Z,2.54
2022-11-27T00:11:10.531Z,2.54
2022-11-27T00:16:15.873Z,2.53
2022-11-27T00:21:22.559Z,2.54
2022-11-27T00:26:30.882Z,2.56
2022-11-27T00:31:37.860Z,2.55
2022-11-27T00:36:46.549Z,2.54
2022-11-27T00:41:52.084Z,2.53
2022-11-27T00:46:56.205Z,2.49
2022-11-27T00:51:59.984Z,2.42
2022-11-27T00:57:04.476Z,2.40
2022-11-27T01:02:08.319Z,2.42
2022-11-27T01:07:12.623Z,2.42
2022-11-27T01:12:16.669Z,2.42
2022-11-27T01:17:20.442Z,2.42
2022-11-27T01:22:24.319Z,2.41
2022-11-27T01:27:28.209Z,2.42
2022-11-27T01:32:31.716Z,2.44
2022-11-27T01:37:39.378Z,2.40
2022-11-27T01:42:43.076Z,2.37
2022-11-27T01:47:50.702Z,2.35
2022-11-27T01:52:59.011Z,2.33
2022-11-27T01:58:08.235Z,2.30
2022-11-27T02:03:12.326Z,2.27
2022-11-27T02:08:17.195Z,2.25
2022-11-27T02:13:29.559Z,2.23
2022-11-27T02:18:43.015Z,2.21
2022-11-27T02:24:01.578Z,2.21
2022-11-27T02:29:08.484Z,2.20
2022-11-27T02:34:22.708Z,2.21
2022-11-27T02:39:37.687Z,2.22
2022-11-27T02:44:46.426Z,2.24
2022-11-27T02:49:56.721Z,2.27
2022-11-27T02:55:05.623Z,2.33
2022-11-27T03:00:12.572Z,2.33
2022-11-27T03:05:20.836Z,2.32
2022-11-27T03:10:34.047Z,2.29
2022-11-27T03:15:45.840Z,2.25
2022-11-27T03:20:56.943Z,2.23
2022-11-27T03:26:00.809Z,2.21
2022-11-27T03:31:04.961Z,2.22
2022-11-27T03:36:14.861Z,2.23
2022-11-27T03:41:25.302Z,2.24
2022-11-27T03:46:40.091Z,2.23
2022-11-27T03:51:54.176Z,2.20
2022-11-27T03:57:06.600Z,2.20
2022-11-27T04:02:14.339Z,2.20
2022-11-27T04:07:18.964Z,2.25
2022-11-27T04:12:22.656Z,2.29
2022-11-27T04:17:26.241Z,2.31
2022-11-27T04:22:29.789Z,2.37
2022-11-27T04:27:33.820Z,2.42
2022-11-27T04:32:37.541Z,2.38
2022-11-27T04:37:41.184Z,2.31
2022-11-27T04:42:44.773Z,2.22
2022-11-27T04:47:48.850Z,2.18
2022-11-27T04:52:52.757Z,2.24
2022-11-27T04:57:56.499Z,2.30
2022-11-27T05:03:00.665Z,2.34
2022-11-27T05:08:04.961Z,2.36
2022-11-27T05:13:08.591Z,2.40
2022-11-27T05:18:12.309Z,2.46
2022-11-27T05:23:15.756Z,2.47
2022-11-27T05:28:26.674Z,2.46
2022-11-27T05:33:31.132Z,2.49
2022-11-27T05:38:35.251Z,2.49
2022-11-27T05:43:39.016Z,2.37
2022-11-27T05:48:42.655Z,2.31
2022-11-27T05:53:46.788Z,2.26
2022-11-27T05:58:51.626Z,2.24
2022-11-27T06:03:55.678Z,2.30
2022-11-27T06:09:00.307Z,2.37
2022-11-27T06:14:06.826Z,2.44
2022-11-27T06:19:10.375Z,2.49
2022-11-27T06:24:14.152Z,2.51
2022-11-27T06:29:17.978Z,2.52
2022-11-27T06:34:21.613Z,2.54
2022-11-27T06:39:25.762Z,2.57
2022-11-27T06:44:29.425Z,2.58
2022-11-27T06:49:33.179Z,2.58
2022-11-27T06:54:36.925Z,2.59
2022-11-27T06:59:40.838Z,2.59
2022-11-27T07:04:44.786Z,2.60
2022-11-27T07:09:48.698Z,2.62
2022-11-27T07:14:52.137Z,2.63
2022-11-27T07:19:55.755Z,2.63
2022-11-27T07:24:59.259Z,2.62
2022-11-27T07:30:03.330Z,2.63
2022-11-27T07:35:08.892Z,2.64
2022-11-27T07:40:15.022Z,2.68
2022-11-27T07:45:18.886Z,2.70
2022-11-27T07:50:22.605Z,2.70
2022-11-27T07:55:26.230Z,2.69
2022-11-27T08:00:30.906Z,2.67
2022-11-27T08:05:39.667Z,2.69
2022-11-27T08:10:44.400Z,2.73
2022-11-27T08:15:48.411Z,2.74
2022-11-27T08:20:52.819Z,2.80
2022-11-27T08:25:57.097Z,2.86
2022-11-27T08:31:04.323Z,2.90
2022-11-27T08:36:14.980Z,2.97
2022-11-27T08:41:22.333Z,3.05
2022-11-27T08:46:26.258Z,3.09
2022-11-27T08:51:30.316Z,3.12
2022-11-27T08:56:34.299Z,3.14
2022-11-27T09:01:38.731Z,3.18
2022-11-27T09:06:43.835Z,3.22
2022-11-27T09:11:48.056Z,3.26
2022-11-27T09:16:53.666Z,3.32
2022-11-27T09:21:58.144Z,3.35
2022-11-27T09:27:02.988Z,3.37
2022-11-27T09:32:06.973Z,3.41
2022-11-27T09:37:11.547Z,3.46
2022-11-27T09:42:29.769Z,3.50
2022-11-27T09:51:46.760Z,3.47
2022-11-27T09:56:56.467Z,3.37
2022-11-27T10:02:03.849Z,3.34
2022-11-27T10:07:22.409Z,3.41
2022-11-27T10:12:37.337Z,3.46
2022-11-27T10:17:52.478Z,3.53
2022-11-27T10:23:06.563Z,3.59
2022-11-27T10:28:28.171Z,3.64
2022-11-27T10:33:43.204Z,3.69
2022-11-27T10:38:52.169Z,3.72
2022-11-27T10:44:12.785Z,3.73
2022-11-27T10:49:20.999Z,3.75
2022-11-27T10:54:32.588Z,3.78
2022-11-27T10:59:45.660Z,3.82
2022-11-27T11:05:16.276Z,3.84
2022-11-27T11:10:30.143Z,3.87
2022-11-27T11:15:35.733Z,3.88
2022-11-27T11:20:48.351Z,3.90
2022-11-27T11:25:59.728Z,3.93
2022-11-27T11:31:14.125Z,3.96
2022-11-27T11:36:22.738Z,3.95
2022-11-27T11:41:39.771Z,3.93
2022-11-27T11:46:55.161Z,3.91
2022-11-27T11:52:22.053Z,3.93
2022-11-27T11:57:53.051Z,3.98
2022-11-27T12:03:26.558Z,4.06
2022-11-27T12:08:47.221Z,4.12
2022-11-27T12:14:11.516Z,4.14
2022-11-27T12:19:40.831Z,4.13
2022-11-27T12:24:57.105Z,4.14
2022-11-27T12:30:11.698Z,4.17
2022-11-27T12:35:44.430Z,4.20
2022-11-27T12:41:13.440Z,4.25
2022-11-27T12:51:52.196Z,4.32
2022-11-27T12:57:02.675Z,4.30
2022-11-27T13:02:24.861Z,4.29
2022-11-27T13:07:40.498Z,4.27
2022-11-27T13:12:56.724Z,4.25
2022-11-27T13:18:14.891Z,4.24
2022-11-27T13:23:22.708Z,4.19
2022-11-27T13:28:38.356Z,4.15
2022-11-27T13:33:47.723Z,4.14
2022-11-27T13:39:01.395Z,4.11
2022-11-27T13:44:23.246Z,4.07
2022-11-27T13:49:33.202Z,4.04
2022-11-27T13:54:52.490Z,4.01
2022-11-27T14:00:04.084Z,3.99
2022-11-27T14:05:14.378Z,3.97
2022-11-27T14:10:25.658Z,3.93
2022-11-27T14:15:35.606Z,3.88
2022-11-27T14:20:51.001Z,3.87
2022-11-27T14:26:14.702Z,3.86
2022-11-27T14:31:40.736Z,3.87
2022-11-27T14:36:52.755Z,3.83
2022-11-27T14:42:01.785Z,3.81
2022-11-27T14:47:18.719Z,3.78
2022-11-27T14:52:27.860Z,3.76
2022-11-27T14:57:35.487Z,3.76
2022-11-27T15:02:43.097Z,3.77
2022-11-27T15:07:53.692Z,3.74
2022-11-27T15:13:03.532Z,3.71
2022-11-27T15:18:20.566Z,3.66
2022-11-27T15:23:31.789Z,3.63
2022-11-27T15:28:41.455Z,3.64
2022-11-27T15:33:58.714Z,3.66
2022-11-27T15:39:22.617Z,3.67
2022-11-27T15:44:32.960Z,3.66
2022-11-27T15:49:40.551Z,3.63
2022-11-27T15:54:48.183Z,3.59
2022-11-27T15:59:55.555Z,3.52
2022-11-27T16:05:01.195Z,3.49
2022-11-27T16:10:10.905Z,3.45
2022-11-27T16:15:18.531Z,3.41
2022-11-27T16:20:26.046Z,3.38
2022-11-27T16:25:33.324Z,3.35
2022-11-27T16:30:40.462Z,3.34
2022-11-27T16:35:47.674Z,3.34
2022-11-27T16:41:00.493Z,3.34
2022-11-27T16:51:45.419Z,3.37
2022-11-27T16:56:53.081Z,3.35
2022-11-27T17:02:00.838Z,3.32
2022-11-27T17:07:08.321Z,3.24
2022-11-27T17:12:16.471Z,3.16
2022-11-27T17:17:24.514Z,3.17
2022-11-27T17:22:32.789Z,3.19
2022-11-27T17:27:39.907Z,3.18
2022-11-27T17:32:45.488Z,3.16
2022-11-27T17:37:52.788Z,3.13
2022-11-27T17:42:59.873Z,3.09
2022-11-27T17:48:19.863Z,3.06
2022-11-27T17:53:35.295Z,3.03
2022-11-27T17:58:42.606Z,3.05
2022-11-27T18:03:51.059Z,3.05
2022-11-27T18:08:59.417Z,3.02
2022-11-27T18:14:07.026Z,3.02
2022-11-27T18:19:15.056Z,3.00
2022-11-27T18:24:23.899Z,2.97
2022-11-27T18:29:32.459Z,2.97
2022-11-27T18:34:39.984Z,2.99
2022-11-27T18:39:47.845Z,3.01
2022-11-27T18:44:55.561Z,3.01
2022-11-27T18:50:03.468Z,2.99
2022-11-27T18:55:11.952Z,3.01
2022-11-27T19:00:21.330Z,3.02
2022-11-27T19:05:28.456Z,3.03
2022-11-27T19:10:35.667Z,3.05
2022-11-27T19:15:41.628Z,3.04
2022-11-27T19:20:49.302Z,3.02
2022-11-27T19:25:57.040Z,2.98
2022-11-27T19:31:05.430Z,2.91
2022-11-27T19:36:15.147Z,2.86
2022-11-27T19:41:22.973Z,2.83
2022-11-27T19:46:33.000Z,2.85
2022-11-27T19:51:42.263Z,2.89
2022-11-27T19:56:51.741Z,2.90
2022-11-27T20:01:59.144Z,2.90
2022-11-27T20:07:07.000Z,2.90
2022-11-27T20:12:15.098Z,2.90
2022-11-27T20:17:22.866Z,2.88
2022-11-27T20:22:30.274Z,2.86
2022-11-27T20:27:38.403Z,2.84
2022-11-27T20:32:46.003Z,2.80
2022-11-27T20:37:53.461Z,2.74
2022-11-27T20:43:01.224Z,2.71
2022-11-27T20:48:09.832Z,2.73
2022-11-27T20:53:17.794Z,2.75
2022-11-27T20:58:25.926Z,2.70
2022-11-27T21:03:33.635Z,2.62
2022-11-27T21:08:41.217Z,2.61
2022-11-27T21:13:50.844Z,2.62
2022-11-27T21:19:00.024Z,2.63
2022-11-27T21:24:10.805Z,2.64
2022-11-27T21:29:25.090Z,2.64
2022-11-27T21:34:33.453Z,2.62
2022-11-27T21:39:41.691Z,2.61
2022-11-27T21:44:49.594Z,2.62
2022-11-27T21:49:56.958Z,2.63
2022-11-27T21:55:04.663Z,2.63
2022-11-27T22:00:15.342Z,2.63
2022-11-27T22:05:22.872Z,2.57
2022-11-27T22:10:30.149Z,2.56
2022-11-27T22:15:38.255Z,2.58
2022-11-27T22:20:45.672Z,2.60
2022-11-27T22:25:53.120Z,2.61
2022-11-27T22:30:59.034Z,2.59
2022-11-27T22:36:15.376Z,2.58
2022-11-27T22:41:25.248Z,2.54
2022-11-27T22:46:35.618Z,2.53
2022-11-27T22:51:43.274Z,2.53
2022-11-27T22:56:51.002Z,2.51
2022-11-27T23:01:58.359Z,2.49
2022-11-27T23:07:06.566Z,2.44
2022-11-27T23:12:14.704Z,2.39
2022-11-27T23:17:22.752Z,2.38
2022-11-27T23:22:30.087Z,2.39
2022-11-27T23:27:37.586Z,2.43
2022-11-27T23:32:45.419Z,2.45
2022-11-27T23:37:52.749Z,2.46
2022-11-27T23:42:59.704Z,2.45
2022-11-27T23:48:09.357Z,2.43
2022-11-27T23:53:16.359Z,2.44
2022-11-27T23:58:24.912Z,2.47
